sensor_id;sensor_type;location;lat;lon;timestamp;P1;durP1;ratioP1;P2;durP2;ratioP2
58137;SDS011;43955;47.362;18.930;2024-02-23T00:00:57;2.50;;;1.30;;
58137;SDS011;43955;47.362;18.930;2024-02-23T00:03:25;3.37;;;1.42;;
58137;SDS011;43955;47.362;18.930;2024-02-23T00:05:52;3.90;;;1.58;;
58137;SDS011;43955;47.362;18.930;2024-02-23T00:08:19;1.80;;;1.05;;
58137;SDS011;43955;47.362;18.930;2024-02-23T00:10:47;3.30;;;1.80;;
58137;SDS011;43955;47.362;18.930;2024-02-23T00:13:15;3.40;;;1.50;;
58137;SDS011;43955;47.362;18.930;2024-02-23T00:15:43;2.65;;;1.60;;
58137;SDS011;43955;47.362;18.930;2024-02-23T00:18:11;2.62;;;1.70;;
58137;SDS011;43955;47.362;18.930;2024-02-23T00:20:40;2.95;;;1.83;;
58137;SDS011;43955;47.362;18.930;2024-02-23T00:23:10;4.62;;;1.70;;
58137;SDS011;43955;47.362;18.930;2024-02-23T00:25:38;3.55;;;1.52;;
58137;SDS011;43955;47.362;18.930;2024-02-23T00:28:05;3.78;;;1.65;;
58137;SDS011;43955;47.362;18.930;2024-02-23T00:30:33;9.80;;;1.62;;
58137;SDS011;43955;47.362;18.930;2024-02-23T00:33:02;3.83;;;2.03;;
58137;SDS011;43955;47.362;18.930;2024-02-23T00:35:30;3.97;;;1.60;;
58137;SDS011;43955;47.362;18.930;2024-02-23T00:37:58;3.62;;;1.48;;
58137;SDS011;43955;47.362;18.930;2024-02-23T00:40:26;2.97;;;1.75;;
58137;SDS011;43955;47.362;18.930;2024-02-23T00:42:53;2.90;;;1.80;;
58137;SDS011;43955;47.362;18.930;2024-02-23T00:45:20;2.97;;;1.27;;
58137;SDS011;43955;47.362;18.930;2024-02-23T00:47:48;2.75;;;1.42;;
58137;SDS011;43955;47.362;18.930;2024-02-23T00:50:16;3.22;;;1.83;;
58137;SDS011;43955;47.362;18.930;2024-02-23T00:52:44;3.70;;;1.62;;
58137;SDS011;43955;47.362;18.930;2024-02-23T00:55:12;5.22;;;1.85;;
58137;SDS011;43955;47.362;18.930;2024-02-23T00:57:39;3.42;;;1.67;;
58137;SDS011;43955;47.362;18.930;2024-02-23T01:00:06;3.67;;;2.00;;
58137;SDS011;43955;47.362;18.930;2024-02-23T01:05:08;4.35;;;2.10;;
58137;SDS011;43955;47.362;18.930;2024-02-23T01:07:37;3.47;;;1.90;;
58137;SDS011;43955;47.362;18.930;2024-02-23T01:10:07;3.72;;;1.98;;
58137;SDS011;43955;47.362;18.930;2024-02-23T01:12:34;2.83;;;1.52;;
58137;SDS011;43955;47.362;18.930;2024-02-23T01:15:02;3.22;;;1.70;;
58137;SDS011;43955;47.362;18.930;2024-02-23T01:17:32;4.07;;;1.90;;
58137;SDS011;43955;47.362;18.930;2024-02-23T01:20:00;2.85;;;1.65;;
58137;SDS011;43955;47.362;18.930;2024-02-23T01:22:46;5.18;;;2.30;;
58137;SDS011;43955;47.362;18.930;2024-02-23T01:25:13;2.95;;;1.80;;
58137;SDS011;43955;47.362;18.930;2024-02-23T01:27:43;5.35;;;2.60;;
58137;SDS011;43955;47.362;18.930;2024-02-23T01:30:14;3.50;;;2.05;;
58137;SDS011;43955;47.362;18.930;2024-02-23T01:32:41;3.87;;;1.85;;
58137;SDS011;43955;47.362;18.930;2024-02-23T01:35:09;3.78;;;1.70;;
58137;SDS011;43955;47.362;18.930;2024-02-23T01:37:36;3.65;;;1.77;;
58137;SDS011;43955;47.362;18.930;2024-02-23T01:40:04;4.12;;;2.05;;
58137;SDS011;43955;47.362;18.930;2024-02-23T01:42:32;3.10;;;1.80;;
58137;SDS011;43955;47.362;18.930;2024-02-23T01:45:00;2.83;;;1.60;;
58137;SDS011;43955;47.362;18.930;2024-02-23T01:47:30;3.40;;;1.83;;
58137;SDS011;43955;47.362;18.930;2024-02-23T01:49:58;3.12;;;1.85;;
58137;SDS011;43955;47.362;18.930;2024-02-23T01:52:26;3.30;;;1.70;;
58137;SDS011;43955;47.362;18.930;2024-02-23T01:54:53;3.95;;;1.70;;
58137;SDS011;43955;47.362;18.930;2024-02-23T01:57:21;2.87;;;1.70;;
58137;SDS011;43955;47.362;18.930;2024-02-23T02:00:11;3.97;;;1.70;;
58137;SDS011;43955;47.362;18.930;2024-02-23T02:02:45;6.00;;;2.20;;
58137;SDS011;43955;47.362;18.930;2024-02-23T02:05:15;2.80;;;1.73;;
58137;SDS011;43955;47.362;18.930;2024-02-23T02:07:42;4.97;;;2.12;;
58137;SDS011;43955;47.362;18.930;2024-02-23T02:10:11;3.35;;;1.70;;
58137;SDS011;43955;47.362;18.930;2024-02-23T02:12:39;3.47;;;2.03;;
58137;SDS011;43955;47.362;18.930;2024-02-23T02:15:06;3.20;;;1.87;;
58137;SDS011;43955;47.362;18.930;2024-02-23T02:17:38;4.85;;;2.05;;
58137;SDS011;43955;47.362;18.930;2024-02-23T02:20:05;4.55;;;2.00;;
58137;SDS011;43955;47.362;18.930;2024-02-23T02:22:34;3.75;;;1.92;;
58137;SDS011;43955;47.362;18.930;2024-02-23T02:25:03;4.07;;;2.17;;
58137;SDS011;43955;47.362;18.930;2024-02-23T02:27:31;4.87;;;1.75;;
58137;SDS011;43955;47.362;18.930;2024-02-23T02:29:59;2.83;;;1.90;;
58137;SDS011;43955;47.362;18.930;2024-02-23T02:32:29;3.20;;;2.05;;
58137;SDS011;43955;47.362;18.930;2024-02-23T02:35:05;4.20;;;1.70;;
58137;SDS011;43955;47.362;18.930;2024-02-23T02:37:32;3.17;;;1.50;;
58137;SDS011;43955;47.362;18.930;2024-02-23T02:40:00;3.37;;;1.70;;
58137;SDS011;43955;47.362;18.930;2024-02-23T02:42:30;2.90;;;1.50;;
58137;SDS011;43955;47.362;18.930;2024-02-23T02:44:57;4.10;;;2.03;;
58137;SDS011;43955;47.362;18.930;2024-02-23T02:47:25;4.82;;;1.95;;
58137;SDS011;43955;47.362;18.930;2024-02-23T02:49:53;3.20;;;2.05;;
58137;SDS011;43955;47.362;18.930;2024-02-23T02:52:21;6.30;;;1.70;;
58137;SDS011;43955;47.362;18.930;2024-02-23T02:54:50;4.55;;;1.87;;
58137;SDS011;43955;47.362;18.930;2024-02-23T02:57:18;3.30;;;1.70;;
58137;SDS011;43955;47.362;18.930;2024-02-23T02:59:45;4.30;;;2.10;;
58137;SDS011;43955;47.362;18.930;2024-02-23T03:02:13;3.17;;;1.90;;
58137;SDS011;43955;47.362;18.930;2024-02-23T03:04:47;3.47;;;2.17;;
58137;SDS011;43955;47.362;18.930;2024-02-23T03:07:18;3.58;;;1.83;;
58137;SDS011;43955;47.362;18.930;2024-02-23T03:09:46;4.18;;;2.10;;
58137;SDS011;43955;47.362;18.930;2024-02-23T03:12:13;2.83;;;1.77;;
58137;SDS011;43955;47.362;18.930;2024-02-23T03:14:40;5.47;;;2.22;;
58137;SDS011;43955;47.362;18.930;2024-02-23T03:17:08;4.43;;;1.85;;
58137;SDS011;43955;47.362;18.930;2024-02-23T03:19:41;3.17;;;1.77;;
58137;SDS011;43955;47.362;18.930;2024-02-23T03:22:09;6.07;;;2.72;;
58137;SDS011;43955;47.362;18.930;2024-02-23T03:24:36;4.57;;;2.17;;
58137;SDS011;43955;47.362;18.930;2024-02-23T03:27:04;3.15;;;1.90;;
58137;SDS011;43955;47.362;18.930;2024-02-23T03:29:33;4.20;;;2.15;;
58137;SDS011;43955;47.362;18.930;2024-02-23T03:32:00;4.93;;;2.70;;
58137;SDS011;43955;47.362;18.930;2024-02-23T03:34:28;4.47;;;2.33;;
58137;SDS011;43955;47.362;18.930;2024-02-23T03:36:56;5.28;;;3.12;;
58137;SDS011;43955;47.362;18.930;2024-02-23T03:39:25;5.47;;;2.20;;
58137;SDS011;43955;47.362;18.930;2024-02-23T03:41:52;4.85;;;2.10;;
58137;SDS011;43955;47.362;18.930;2024-02-23T03:44:20;3.33;;;2.08;;
58137;SDS011;43955;47.362;18.930;2024-02-23T03:46:48;3.87;;;1.83;;
58137;SDS011;43955;47.362;18.930;2024-02-23T03:49:16;5.45;;;2.45;;
58137;SDS011;43955;47.362;18.930;2024-02-23T03:51:44;5.47;;;1.98;;
58137;SDS011;43955;47.362;18.930;2024-02-23T03:54:12;3.62;;;2.30;;
58137;SDS011;43955;47.362;18.930;2024-02-23T03:56:40;3.83;;;1.85;;
58137;SDS011;43955;47.362;18.930;2024-02-23T03:59:09;3.80;;;2.28;;
58137;SDS011;43955;47.362;18.930;2024-02-23T04:01:37;4.05;;;2.30;;
58137;SDS011;43955;47.362;18.930;2024-02-23T04:04:07;3.95;;;2.00;;
58137;SDS011;43955;47.362;18.930;2024-02-23T04:06:35;4.75;;;2.05;;
58137;SDS011;43955;47.362;18.930;2024-02-23T04:09:03;4.45;;;2.30;;
58137;SDS011;43955;47.362;18.930;2024-02-23T04:11:33;3.60;;;1.92;;
58137;SDS011;43955;47.362;18.930;2024-02-23T04:14:01;4.12;;;2.00;;
58137;SDS011;43955;47.362;18.930;2024-02-23T04:16:29;5.40;;;2.30;;
58137;SDS011;43955;47.362;18.930;2024-02-23T04:18:59;3.62;;;2.00;;
58137;SDS011;43955;47.362;18.930;2024-02-23T04:21:27;4.20;;;2.28;;
58137;SDS011;43955;47.362;18.930;2024-02-23T04:23:54;7.28;;;3.10;;
58137;SDS011;43955;47.362;18.930;2024-02-23T04:26:22;4.03;;;2.33;;
58137;SDS011;43955;47.362;18.930;2024-02-23T04:28:49;4.35;;;2.12;;
58137;SDS011;43955;47.362;18.930;2024-02-23T04:31:17;6.03;;;1.90;;
58137;SDS011;43955;47.362;18.930;2024-02-23T04:33:44;3.25;;;2.00;;
58137;SDS011;43955;47.362;18.930;2024-02-23T04:36:12;3.70;;;1.90;;
58137;SDS011;43955;47.362;18.930;2024-02-23T04:38:40;3.37;;;1.83;;
58137;SDS011;43955;47.362;18.930;2024-02-23T04:41:09;4.80;;;2.20;;
58137;SDS011;43955;47.362;18.930;2024-02-23T04:43:36;3.30;;;1.75;;
58137;SDS011;43955;47.362;18.930;2024-02-23T04:46:04;3.50;;;1.90;;
58137;SDS011;43955;47.362;18.930;2024-02-23T04:48:31;3.08;;;1.90;;
58137;SDS011;43955;47.362;18.930;2024-02-23T04:50:59;3.30;;;1.60;;
58137;SDS011;43955;47.362;18.930;2024-02-23T04:53:28;3.25;;;1.52;;
58137;SDS011;43955;47.362;18.930;2024-02-23T04:55:57;3.65;;;1.60;;
58137;SDS011;43955;47.362;18.930;2024-02-23T04:58:24;4.85;;;1.70;;
58137;SDS011;43955;47.362;18.930;2024-02-23T05:00:51;6.72;;;2.58;;
58137;SDS011;43955;47.362;18.930;2024-02-23T05:03:19;3.33;;;1.80;;
58137;SDS011;43955;47.362;18.930;2024-02-23T05:05:47;3.47;;;1.42;;
58137;SDS011;43955;47.362;18.930;2024-02-23T05:08:15;3.78;;;1.50;;
58137;SDS011;43955;47.362;18.930;2024-02-23T05:10:42;4.30;;;1.48;;
58137;SDS011;43955;47.362;18.930;2024-02-23T05:13:10;2.47;;;1.50;;
58137;SDS011;43955;47.362;18.930;2024-02-23T05:15:37;2.80;;;1.30;;
58137;SDS011;43955;47.362;18.930;2024-02-23T05:18:05;2.78;;;1.67;;
58137;SDS011;43955;47.362;18.930;2024-02-23T05:20:33;3.45;;;2.05;;
58137;SDS011;43955;47.362;18.930;2024-02-23T05:23:02;2.58;;;1.65;;
58137;SDS011;43955;47.362;18.930;2024-02-23T05:25:29;4.97;;;2.55;;
58137;SDS011;43955;47.362;18.930;2024-02-23T05:27:57;2.97;;;1.50;;
58137;SDS011;43955;47.362;18.930;2024-02-23T05:30:29;1.92;;;1.15;;
58137;SDS011;43955;47.362;18.930;2024-02-23T05:32:58;3.28;;;1.20;;
58137;SDS011;43955;47.362;18.930;2024-02-23T05:35:30;4.18;;;1.20;;
58137;SDS011;43955;47.362;18.930;2024-02-23T05:37:58;2.45;;;1.50;;
58137;SDS011;43955;47.362;18.930;2024-02-23T05:40:26;3.35;;;1.70;;
58137;SDS011;43955;47.362;18.930;2024-02-23T05:42:55;3.25;;;1.48;;
58137;SDS011;43955;47.362;18.930;2024-02-23T05:45:22;3.40;;;1.30;;
58137;SDS011;43955;47.362;18.930;2024-02-23T05:47:49;2.65;;;1.67;;
58137;SDS011;43955;47.362;18.930;2024-02-23T05:50:17;2.85;;;1.50;;
58137;SDS011;43955;47.362;18.930;2024-02-23T05:52:45;2.50;;;1.17;;
58137;SDS011;43955;47.362;18.930;2024-02-23T05:55:12;3.30;;;1.52;;
58137;SDS011;43955;47.362;18.930;2024-02-23T05:57:40;2.92;;;1.60;;
58137;SDS011;43955;47.362;18.930;2024-02-23T06:00:07;3.78;;;1.85;;
58137;SDS011;43955;47.362;18.930;2024-02-23T06:02:37;11.82;;;10.27;;
58137;SDS011;43955;47.362;18.930;2024-02-23T06:05:05;19.45;;;16.00;;
58137;SDS011;43955;47.362;18.930;2024-02-23T06:07:36;4.20;;;2.60;;
58137;SDS011;43955;47.362;18.930;2024-02-23T06:10:07;5.68;;;2.22;;
58137;SDS011;43955;47.362;18.930;2024-02-23T06:12:35;4.50;;;2.30;;
58137;SDS011;43955;47.362;18.930;2024-02-23T06:15:03;5.05;;;3.08;;
58137;SDS011;43955;47.362;18.930;2024-02-23T06:17:31;4.82;;;2.42;;
58137;SDS011;43955;47.362;18.930;2024-02-23T06:19:59;11.68;;;5.65;;
58137;SDS011;43955;47.362;18.930;2024-02-23T06:22:27;4.40;;;2.53;;
58137;SDS011;43955;47.362;18.930;2024-02-23T06:24:55;5.72;;;3.50;;
58137;SDS011;43955;47.362;18.930;2024-02-23T06:27:22;5.53;;;2.55;;
58137;SDS011;43955;47.362;18.930;2024-02-23T06:29:50;7.05;;;2.15;;
58137;SDS011;43955;47.362;18.930;2024-02-23T06:32:19;5.28;;;2.25;;
58137;SDS011;43955;47.362;18.930;2024-02-23T06:34:47;6.05;;;2.58;;
58137;SDS011;43955;47.362;18.930;2024-02-23T06:37:17;5.07;;;2.17;;
58137;SDS011;43955;47.362;18.930;2024-02-23T06:39:44;4.70;;;2.53;;
58137;SDS011;43955;47.362;18.930;2024-02-23T06:42:16;6.03;;;3.40;;
58137;SDS011;43955;47.362;18.930;2024-02-23T06:44:44;9.35;;;2.85;;
58137;SDS011;43955;47.362;18.930;2024-02-23T06:47:13;9.77;;;3.67;;
58137;SDS011;43955;47.362;18.930;2024-02-23T06:49:41;11.12;;;4.18;;
58137;SDS011;43955;47.362;18.930;2024-02-23T06:52:10;9.32;;;4.65;;
58137;SDS011;43955;47.362;18.930;2024-02-23T06:54:40;4.95;;;2.97;;
58137;SDS011;43955;47.362;18.930;2024-02-23T06:57:07;6.22;;;3.58;;
58137;SDS011;43955;47.362;18.930;2024-02-23T06:59:35;8.57;;;3.95;;
58137;SDS011;43955;47.362;18.930;2024-02-23T07:02:02;5.55;;;3.08;;
58137;SDS011;43955;47.362;18.930;2024-02-23T07:04:31;6.32;;;3.05;;
58137;SDS011;43955;47.362;18.930;2024-02-23T07:07:01;7.72;;;2.70;;
58137;SDS011;43955;47.362;18.930;2024-02-23T07:09:34;8.73;;;3.25;;
58137;SDS011;43955;47.362;18.930;2024-02-23T07:12:01;5.53;;;2.60;;
58137;SDS011;43955;47.362;18.930;2024-02-23T07:14:29;6.95;;;3.40;;
58137;SDS011;43955;47.362;18.930;2024-02-23T07:16:57;6.18;;;2.90;;
58137;SDS011;43955;47.362;18.930;2024-02-23T07:19:24;4.37;;;2.60;;
58137;SDS011;43955;47.362;18.930;2024-02-23T07:21:51;4.95;;;2.35;;
58137;SDS011;43955;47.362;18.930;2024-02-23T07:24:19;4.93;;;2.60;;
58137;SDS011;43955;47.362;18.930;2024-02-23T07:26:54;6.05;;;2.62;;
58137;SDS011;43955;47.362;18.930;2024-02-23T07:29:22;9.77;;;2.85;;
58137;SDS011;43955;47.362;18.930;2024-02-23T07:31:49;4.78;;;2.42;;
58137;SDS011;43955;47.362;18.930;2024-02-23T07:34:22;4.40;;;2.53;;
58137;SDS011;43955;47.362;18.930;2024-02-23T07:36:53;11.77;;;3.40;;
58137;SDS011;43955;47.362;18.930;2024-02-23T07:39:22;6.22;;;3.15;;
58137;SDS011;43955;47.362;18.930;2024-02-23T07:41:49;8.77;;;4.45;;
58137;SDS011;43955;47.362;18.930;2024-02-23T07:44:17;8.32;;;4.12;;
58137;SDS011;43955;47.362;18.930;2024-02-23T07:46:45;7.25;;;3.20;;
58137;SDS011;43955;47.362;18.930;2024-02-23T07:49:13;4.37;;;2.55;;
58137;SDS011;43955;47.362;18.930;2024-02-23T07:51:41;4.65;;;3.17;;
58137;SDS011;43955;47.362;18.930;2024-02-23T07:54:08;10.20;;;3.50;;
58137;SDS011;43955;47.362;18.930;2024-02-23T07:56:35;6.72;;;3.30;;
58137;SDS011;43955;47.362;18.930;2024-02-23T07:59:03;6.47;;;3.10;;
58137;SDS011;43955;47.362;18.930;2024-02-23T08:01:32;13.60;;;8.18;;
58137;SDS011;43955;47.362;18.930;2024-02-23T08:04:00;8.68;;;3.58;;
58137;SDS011;43955;47.362;18.930;2024-02-23T08:06:29;7.10;;;3.60;;
58137;SDS011;43955;47.362;18.930;2024-02-23T08:08:57;5.28;;;2.95;;
58137;SDS011;43955;47.362;18.930;2024-02-23T08:11:25;7.12;;;3.75;;
58137;SDS011;43955;47.362;18.930;2024-02-23T08:13:53;4.72;;;3.25;;
58137;SDS011;43955;47.362;18.930;2024-02-23T08:16:23;6.50;;;3.25;;
58137;SDS011;43955;47.362;18.930;2024-02-23T08:18:51;5.72;;;3.42;;
58137;SDS011;43955;47.362;18.930;2024-02-23T08:21:20;6.53;;;3.78;;
58137;SDS011;43955;47.362;18.930;2024-02-23T08:23:47;5.50;;;3.40;;
58137;SDS011;43955;47.362;18.930;2024-02-23T08:26:15;8.40;;;3.70;;
58137;SDS011;43955;47.362;18.930;2024-02-23T08:28:42;8.20;;;4.82;;
58137;SDS011;43955;47.362;18.930;2024-02-23T08:31:09;10.15;;;4.40;;
58137;SDS011;43955;47.362;18.930;2024-02-23T08:33:37;9.13;;;4.72;;
58137;SDS011;43955;47.362;18.930;2024-02-23T08:36:05;8.00;;;3.95;;
58137;SDS011;43955;47.362;18.930;2024-02-23T08:38:52;8.68;;;3.92;;
58137;SDS011;43955;47.362;18.930;2024-02-23T08:41:20;6.03;;;3.22;;
58137;SDS011;43955;47.362;18.930;2024-02-23T08:43:47;6.80;;;3.53;;
58137;SDS011;43955;47.362;18.930;2024-02-23T08:46:16;7.97;;;3.97;;
58137;SDS011;43955;47.362;18.930;2024-02-23T08:48:44;5.65;;;3.60;;
58137;SDS011;43955;47.362;18.930;2024-02-23T08:51:11;7.35;;;3.58;;
58137;SDS011;43955;47.362;18.930;2024-02-23T08:53:39;6.25;;;3.30;;
58137;SDS011;43955;47.362;18.930;2024-02-23T08:56:08;8.73;;;3.10;;
58137;SDS011;43955;47.362;18.930;2024-02-23T08:58:37;6.87;;;3.28;;
58137;SDS011;43955;47.362;18.930;2024-02-23T09:01:04;8.65;;;3.35;;
58137;SDS011;43955;47.362;18.930;2024-02-23T09:03:32;8.13;;;3.70;;
58137;SDS011;43955;47.362;18.930;2024-02-23T09:05:59;7.47;;;2.65;;
58137;SDS011;43955;47.362;18.930;2024-02-23T09:08:27;5.70;;;2.45;;
58137;SDS011;43955;47.362;18.930;2024-02-23T09:10:54;3.95;;;2.17;;
58137;SDS011;43955;47.362;18.930;2024-02-23T09:13:22;6.20;;;2.65;;
58137;SDS011;43955;47.362;18.930;2024-02-23T09:15:49;7.25;;;2.87;;
58137;SDS011;43955;47.362;18.930;2024-02-23T09:18:16;6.25;;;2.65;;
58137;SDS011;43955;47.362;18.930;2024-02-23T09:20:46;5.60;;;2.30;;
58137;SDS011;43955;47.362;18.930;2024-02-23T09:23:13;4.62;;;2.47;;
58137;SDS011;43955;47.362;18.930;2024-02-23T09:25:41;3.20;;;1.95;;
58137;SDS011;43955;47.362;18.930;2024-02-23T09:28:10;6.68;;;3.45;;
58137;SDS011;43955;47.362;18.930;2024-02-23T09:30:39;4.68;;;2.80;;
58137;SDS011;43955;47.362;18.930;2024-02-23T09:33:08;6.45;;;2.83;;
58137;SDS011;43955;47.362;18.930;2024-02-23T09:35:35;7.82;;;3.35;;
58137;SDS011;43955;47.362;18.930;2024-02-23T09:38:03;8.75;;;4.60;;
58137;SDS011;43955;47.362;18.930;2024-02-23T09:40:31;4.10;;;2.33;;
58137;SDS011;43955;47.362;18.930;2024-02-23T09:42:58;4.90;;;3.05;;
58137;SDS011;43955;47.362;18.930;2024-02-23T09:45:26;4.65;;;2.80;;
58137;SDS011;43955;47.362;18.930;2024-02-23T09:47:56;4.68;;;3.15;;
58137;SDS011;43955;47.362;18.930;2024-02-23T09:50:24;4.87;;;2.92;;
58137;SDS011;43955;47.362;18.930;2024-02-23T09:52:51;5.95;;;3.92;;
58137;SDS011;43955;47.362;18.930;2024-02-23T09:55:21;5.00;;;2.25;;
58137;SDS011;43955;47.362;18.930;2024-02-23T09:57:51;5.18;;;2.42;;
58137;SDS011;43955;47.362;18.930;2024-02-23T10:00:22;5.43;;;2.33;;
58137;SDS011;43955;47.362;18.930;2024-02-23T10:02:50;5.20;;;3.15;;
58137;SDS011;43955;47.362;18.930;2024-02-23T10:05:19;5.68;;;2.53;;
58137;SDS011;43955;47.362;18.930;2024-02-23T10:07:49;4.12;;;2.12;;
58137;SDS011;43955;47.362;18.930;2024-02-23T10:10:24;4.97;;;2.12;;
58137;SDS011;43955;47.362;18.930;2024-02-23T10:13:01;6.10;;;2.58;;
58137;SDS011;43955;47.362;18.930;2024-02-23T10:15:31;6.85;;;3.22;;
58137;SDS011;43955;47.362;18.930;2024-02-23T10:18:00;7.78;;;3.80;;
58137;SDS011;43955;47.362;18.930;2024-02-23T10:20:28;8.68;;;4.75;;
58137;SDS011;43955;47.362;18.930;2024-02-23T10:22:57;11.00;;;5.82;;
58137;SDS011;43955;47.362;18.930;2024-02-23T10:25:24;7.37;;;4.05;;
58137;SDS011;43955;47.362;18.930;2024-02-23T10:27:52;7.70;;;3.37;;
58137;SDS011;43955;47.362;18.930;2024-02-23T10:30:19;5.82;;;2.35;;
58137;SDS011;43955;47.362;18.930;2024-02-23T10:32:46;4.95;;;2.20;;
58137;SDS011;43955;47.362;18.930;2024-02-23T10:35:16;5.32;;;2.62;;
58137;SDS011;43955;47.362;18.930;2024-02-23T10:37:44;3.80;;;2.03;;
58137;SDS011;43955;47.362;18.930;2024-02-23T10:40:18;5.95;;;3.33;;
58137;SDS011;43955;47.362;18.930;2024-02-23T10:42:50;7.53;;;2.67;;
58137;SDS011;43955;47.362;18.930;2024-02-23T10:45:21;18.60;;;2.97;;
58137;SDS011;43955;47.362;18.930;2024-02-23T10:47:48;4.57;;;2.90;;
58137;SDS011;43955;47.362;18.930;2024-02-23T10:50:17;3.55;;;2.22;;
58137;SDS011;43955;47.362;18.930;2024-02-23T10:52:47;4.55;;;2.70;;
58137;SDS011;43955;47.362;18.930;2024-02-23T10:55:17;5.50;;;3.12;;
58137;SDS011;43955;47.362;18.930;2024-02-23T10:57:44;5.95;;;2.50;;
58137;SDS011;43955;47.362;18.930;2024-02-23T11:00:12;4.35;;;2.35;;
58137;SDS011;43955;47.362;18.930;2024-02-23T11:02:45;5.70;;;2.87;;
58137;SDS011;43955;47.362;18.930;2024-02-23T11:05:14;7.65;;;3.20;;
58137;SDS011;43955;47.362;18.930;2024-02-23T11:07:48;4.30;;;2.10;;
58137;SDS011;43955;47.362;18.930;2024-02-23T11:10:21;4.82;;;1.85;;
58137;SDS011;43955;47.362;18.930;2024-02-23T11:12:58;4.35;;;1.98;;
58137;SDS011;43955;47.362;18.930;2024-02-23T11:15:28;6.40;;;3.20;;
58137;SDS011;43955;47.362;18.930;2024-02-23T11:17:57;5.82;;;3.28;;
58137;SDS011;43955;47.362;18.930;2024-02-23T11:20:33;4.50;;;1.83;;
58137;SDS011;43955;47.362;18.930;2024-02-23T11:23:12;3.53;;;1.67;;
58137;SDS011;43955;47.362;18.930;2024-02-23T11:25:41;2.78;;;1.60;;
58137;SDS011;43955;47.362;18.930;2024-02-23T11:28:09;5.00;;;2.60;;
58137;SDS011;43955;47.362;18.930;2024-02-23T11:30:53;4.15;;;2.28;;
58137;SDS011;43955;47.362;18.930;2024-02-23T11:33:26;4.57;;;2.30;;
58137;SDS011;43955;47.362;18.930;2024-02-23T11:36:07;6.20;;;3.87;;
58137;SDS011;43955;47.362;18.930;2024-02-23T11:38:36;4.95;;;2.40;;
58137;SDS011;43955;47.362;18.930;2024-02-23T11:41:05;7.95;;;2.83;;
58137;SDS011;43955;47.362;18.930;2024-02-23T11:43:34;5.12;;;2.40;;
58137;SDS011;43955;47.362;18.930;2024-02-23T11:46:01;5.78;;;2.40;;
58137;SDS011;43955;47.362;18.930;2024-02-23T11:48:29;6.62;;;2.87;;
58137;SDS011;43955;47.362;18.930;2024-02-23T11:50:56;14.68;;;3.10;;
58137;SDS011;43955;47.362;18.930;2024-02-23T11:53:25;6.35;;;3.10;;
58137;SDS011;43955;47.362;18.930;2024-02-23T11:55:55;5.82;;;2.28;;
58137;SDS011;43955;47.362;18.930;2024-02-23T11:58:22;6.97;;;2.70;;
58137;SDS011;43955;47.362;18.930;2024-02-23T12:00:50;5.43;;;2.50;;
58137;SDS011;43955;47.362;18.930;2024-02-23T12:03:21;3.85;;;2.17;;
58137;SDS011;43955;47.362;18.930;2024-02-23T12:05:49;7.47;;;2.30;;
58137;SDS011;43955;47.362;18.930;2024-02-23T12:08:18;5.12;;;2.30;;
58137;SDS011;43955;47.362;18.930;2024-02-23T12:10:45;6.90;;;2.85;;
58137;SDS011;43955;47.362;18.930;2024-02-23T12:13:13;5.53;;;2.70;;
58137;SDS011;43955;47.362;18.930;2024-02-23T12:15:41;7.68;;;4.47;;
58137;SDS011;43955;47.362;18.930;2024-02-23T12:18:10;7.70;;;4.22;;
58137;SDS011;43955;47.362;18.930;2024-02-23T12:20:38;5.40;;;3.17;;
58137;SDS011;43955;47.362;18.930;2024-02-23T12:23:06;6.22;;;2.50;;
58137;SDS011;43955;47.362;18.930;2024-02-23T12:25:37;6.45;;;3.60;;
58137;SDS011;43955;47.362;18.930;2024-02-23T12:28:09;6.40;;;3.92;;
58137;SDS011;43955;47.362;18.930;2024-02-23T12:30:39;7.78;;;4.60;;
58137;SDS011;43955;47.362;18.930;2024-02-23T12:33:06;8.93;;;4.53;;
58137;SDS011;43955;47.362;18.930;2024-02-23T12:35:37;9.77;;;5.43;;
58137;SDS011;43955;47.362;18.930;2024-02-23T12:38:06;10.63;;;7.43;;
58137;SDS011;43955;47.362;18.930;2024-02-23T12:40:36;12.73;;;6.35;;
58137;SDS011;43955;47.362;18.930;2024-02-23T12:43:04;7.43;;;4.45;;
58137;SDS011;43955;47.362;18.930;2024-02-23T12:45:31;10.55;;;4.60;;
58137;SDS011;43955;47.362;18.930;2024-02-23T12:48:00;8.60;;;4.90;;
58137;SDS011;43955;47.362;18.930;2024-02-23T12:50:29;12.10;;;5.82;;
58137;SDS011;43955;47.362;18.930;2024-02-23T12:53:00;10.40;;;5.82;;
58137;SDS011;43955;47.362;18.930;2024-02-23T12:55:30;12.20;;;6.30;;
58137;SDS011;43955;47.362;18.930;2024-02-23T12:57:57;8.35;;;4.97;;
58137;SDS011;43955;47.362;18.930;2024-02-23T13:00:24;10.40;;;5.35;;
58137;SDS011;43955;47.362;18.930;2024-02-23T13:02:54;6.87;;;4.55;;
58137;SDS011;43955;47.362;18.930;2024-02-23T13:05:22;8.25;;;4.60;;
58137;SDS011;43955;47.362;18.930;2024-02-23T13:07:50;10.07;;;5.12;;
58137;SDS011;43955;47.362;18.930;2024-02-23T13:10:18;8.75;;;5.20;;
58137;SDS011;43955;47.362;18.930;2024-02-23T13:12:45;7.00;;;4.43;;
58137;SDS011;43955;47.362;18.930;2024-02-23T13:15:13;8.23;;;5.20;;
58137;SDS011;43955;47.362;18.930;2024-02-23T13:17:46;8.60;;;4.90;;
58137;SDS011;43955;47.362;18.930;2024-02-23T13:20:13;11.57;;;8.02;;
58137;SDS011;43955;47.362;18.930;2024-02-23T13:22:42;11.75;;;6.95;;
58137;SDS011;43955;47.362;18.930;2024-02-23T13:25:10;13.90;;;6.45;;
58137;SDS011;43955;47.362;18.930;2024-02-23T13:27:37;13.13;;;6.40;;
58137;SDS011;43955;47.362;18.930;2024-02-23T13:30:04;13.95;;;6.35;;
58137;SDS011;43955;47.362;18.930;2024-02-23T13:32:37;10.35;;;6.87;;
58137;SDS011;43955;47.362;18.930;2024-02-23T13:35:05;12.82;;;6.43;;
58137;SDS011;43955;47.362;18.930;2024-02-23T13:37:33;13.85;;;7.12;;
58137;SDS011;43955;47.362;18.930;2024-02-23T13:40:03;15.45;;;7.30;;
58137;SDS011;43955;47.362;18.930;2024-02-23T13:42:34;11.52;;;6.15;;
58137;SDS011;43955;47.362;18.930;2024-02-23T13:45:02;13.05;;;6.80;;
58137;SDS011;43955;47.362;18.930;2024-02-23T13:47:30;11.35;;;6.78;;
58137;SDS011;43955;47.362;18.930;2024-02-23T13:50:00;9.27;;;6.35;;
58137;SDS011;43955;47.362;18.930;2024-02-23T13:52:28;10.93;;;7.22;;
58137;SDS011;43955;47.362;18.930;2024-02-23T13:54:56;13.10;;;8.10;;
58137;SDS011;43955;47.362;18.930;2024-02-23T13:57:27;9.98;;;6.15;;
58137;SDS011;43955;47.362;18.930;2024-02-23T13:59:55;10.75;;;6.53;;
58137;SDS011;43955;47.362;18.930;2024-02-23T14:02:25;9.70;;;5.70;;
58137;SDS011;43955;47.362;18.930;2024-02-23T14:04:59;11.95;;;5.95;;
58137;SDS011;43955;47.362;18.930;2024-02-23T14:07:29;9.02;;;5.60;;
58137;SDS011;43955;47.362;18.930;2024-02-23T14:09:57;9.40;;;5.57;;
58137;SDS011;43955;47.362;18.930;2024-02-23T14:12:26;11.85;;;6.15;;
58137;SDS011;43955;47.362;18.930;2024-02-23T14:14:54;11.20;;;6.78;;
58137;SDS011;43955;47.362;18.930;2024-02-23T14:17:21;12.43;;;6.55;;
58137;SDS011;43955;47.362;18.930;2024-02-23T14:19:48;11.95;;;7.32;;
58137;SDS011;43955;47.362;18.930;2024-02-23T14:22:17;14.87;;;6.28;;
58137;SDS011;43955;47.362;18.930;2024-02-23T14:24:45;10.88;;;6.12;;
58137;SDS011;43955;47.362;18.930;2024-02-23T14:27:12;12.18;;;6.62;;
58137;SDS011;43955;47.362;18.930;2024-02-23T14:29:39;8.57;;;5.65;;
58137;SDS011;43955;47.362;18.930;2024-02-23T14:32:08;13.07;;;7.00;;
58137;SDS011;43955;47.362;18.930;2024-02-23T14:34:37;14.93;;;9.15;;
58137;SDS011;43955;47.362;18.930;2024-02-23T14:37:04;11.27;;;7.30;;
58137;SDS011;43955;47.362;18.930;2024-02-23T14:39:31;10.10;;;7.35;;
58137;SDS011;43955;47.362;18.930;2024-02-23T14:42:02;14.38;;;8.98;;
58137;SDS011;43955;47.362;18.930;2024-02-23T14:44:30;16.50;;;9.13;;